Time;durP1;ratioP1;P1;durP2;ratioP2;P2;SDS_P1;SDS_P2;PMS_P1;PMS_P2;Temp;Humidity;BMP_temperature;BMP_pressure;BME280_temperature;BME280_humidity;BME280_pressure;Samples;Min_cycle;Max_cycle;Signal;HPM_P1;HPM_P2
2023/07/02 00:00:08;;;;;;;5.78;3.67;;;;;;;16.15;100.00;98260.44;5029270;28;20041;-60
2023/07/02 00:02:33;;;;;;;5.57;3.03;;;;;;;16.10;100.00;98263.09;5035366;28;20021;-60
2023/07/02 00:04:59;;;;;;;5.13;3.22;;;;;;;16.04;100.00;98264.13;5032069;28;20487;-60
2023/07/02 00:07:28;;;;;;;6.10;3.38;;;;;;;15.94;100.00;98265.59;5032751;28;20498;-60
2023/07/02 00:09:53;;;;;;;;;;;;;;;15.87;100.00;98270.41;5027189;28;20025;-60
2023/07/02 00:12:18;;;;;;;4.90;3.13;;;;;;;15.81;100.00;98265.97;5033961;28;19912;-60
2023/07/02 00:14:44;;;;;;;6.03;3.47;;;;;;;15.68;100.00;98272.56;5025452;28;20041;-60
2023/07/02 00:17:12;;;;;;;4.70;3.40;;;;;;;15.55;100.00;98272.91;5023769;28;20036;-60
2023/07/02 00:19:41;;;;;;;5.50;3.42;;;;;;;15.46;100.00;98277.13;5034921;28;20123;-60
2023/07/02 00:22:08;;;;;;;4.80;3.65;;;;;;;15.37;100.00;98279.41;5024946;28;20648;-60
2023/07/02 00:24:34;;;;;;;5.93;3.70;;;;;;;15.31;100.00;98283.97;5030236;28;20076;-60
2023/07/02 00:26:59;;;;;;;6.57;3.83;;;;;;;15.24;100.00;98287.91;5027661;28;20017;-60
2023/07/02 00:29:24;;;;;;;7.43;4.22;;;;;;;15.18;100.00;98289.72;5024022;28;20056;-60
2023/07/02 00:31:50;;;;;;;7.13;4.32;;;;;;;15.15;100.00;98286.69;5029910;28;20026;-60
2023/07/02 00:34:15;;;;;;;5.65;4.13;;;;;;;15.06;100.00;98297.13;5026832;28;20029;-60
2023/07/02 00:36:41;;;;;;;7.32;3.78;;;;;;;15.01;100.00;98297.03;5025849;28;20036;-60
2023/07/02 00:39:07;;;;;;;7.15;4.63;;;;;;;14.93;100.00;98290.09;5029813;28;20082;-60
2023/07/02 00:41:32;;;;;;;5.50;4.03;;;;;;;14.86;100.00;98301.16;5032744;28;20460;-60
2023/07/02 00:43:57;;;;;;;5.97;4.20;;;;;;;14.82;100.00;98290.97;5034201;28;20029;-60
2023/07/02 00:46:24;;;;;;;9.57;4.15;;;;;;;14.82;100.00;98282.81;5033756;28;20036;-60
2023/07/02 00:48:51;;;;;;;6.93;4.05;;;;;;;14.82;100.00;98288.25;5037794;28;20025;-60
2023/07/02 00:51:20;;;;;;;10.23;4.10;;;;;;;14.89;100.00;98299.84;5037090;28;20021;-60
2023/07/02 00:53:46;;;;;;;5.78;3.85;;;;;;;14.83;100.00;98298.09;5035881;28;20029;-63
2023/07/02 00:56:12;;;;;;;5.03;3.78;;;;;;;14.83;100.00;98298.09;5041686;28;20053;-60
2023/07/02 00:58:48;;;;;;;7.32;4.55;;;;;;;14.86;100.00;98303.88;5038374;28;20459;-60
2023/07/02 01:01:18;;;;;;;7.47;4.50;;;;;;;14.86;100.00;98303.88;5031832;28;20018;-60
2023/07/02 01:04:03;;;;;;;6.68;3.92;;;;;;;14.86;100.00;98305.78;5037425;28;20387;-60
2023/07/02 01:06:31;;;;;;;7.47;4.90;;;;;;;14.87;100.00;98315.59;5037422;28;20024;-60
2023/07/02 01:08:58;;;;;;;5.18;3.72;;;;;;;14.83;100.00;98306.28;5036355;28;20047;-60
2023/07/02 01:11:30;;;;;;;6.20;4.05;;;;;;;14.73;100.00;98304.16;5036217;28;20060;-60
2023/07/02 01:14:04;;;;;;;7.13;4.22;;;;;;;14.71;100.00;98303.56;5060191;28;20037;-60
2023/07/02 01:16:32;;;;;;;9.60;4.35;;;;;;;14.65;100.00;98304.56;5036011;28;20024;-60
2023/07/02 01:19:03;;;;;;;10.60;4.13;;;;;;;14.57;100.00;98302.22;5035464;28;20031;-64
2023/07/02 01:21:29;;;;;;;7.97;4.68;;;;;;;14.60;100.00;98302.53;5034355;28;20026;-60
2023/07/02 01:23:55;;;;;;;6.47;4.10;;;;;;;14.59;100.00;98284.56;5035287;28;20047;-60
2023/07/02 01:26:20;;;;;;;7.22;3.95;;;;;;;14.65;100.00;98297.22;5034838;28;20480;-60
2023/07/02 01:28:46;;;;;;;7.15;4.38;;;;;;;14.68;100.00;98296.72;5036011;28;20025;-60
2023/07/02 01:31:11;;;;;;;5.53;4.10;;;;;;;14.63;100.00;98293.06;5033635;28;20033;-60
2023/07/02 01:33:37;;;;;;;5.90;4.13;;;;;;;14.72;100.00;98298.94;5034157;28;20033;-60
2023/07/02 01:36:02;;;;;;;7.13;3.80;;;;;;;14.76;100.00;98297.41;5034399;28;20494;-60
2023/07/02 01:38:27;;;;;;;6.18;3.75;;;;;;;14.78;100.00;98308.91;5034750;28;20441;-60
2023/07/02 01:40:53;;;;;;;10.30;4.60;;;;;;;14.80;100.00;98304.00;5033244;28;20107;-60
2023/07/02 01:43:18;;;;;;;10.20;3.90;;;;;;;14.82;100.00;98310.88;5029513;28;20032;-60
2023/07/02 01:45:44;;;;;;;7.55;3.78;;;;;;;14.84;100.00;98307.91;5046331;28;20039;-60
2023/07/02 01:48:09;;;;;;;4.85;3.78;;;;;;;14.89;100.00;98316.19;5037580;28;20021;-60
2023/07/02 01:50:34;;;;;;;5.57;3.72;;;;;;;14.90;100.00;98323.28;5032234;28;20416;-63
2023/07/02 01:53:00;;;;;;;7.50;4.10;;;;;;;14.96;100.00;98316.00;5025003;28;20057;-61
2023/07/02 01:55:25;;;;;;;7.28;3.95;;;;;;;15.03;100.00;98316.69;5033273;28;20026;-61
2023/07/02 01:57:51;;;;;;;6.00;3.80;;;;;;;15.05;100.00;98326.28;5056080;28;20056;-60
2023/07/02 02:00:17;;;;;;;4.95;3.60;;;;;;;15.07;100.00;98321.44;5049358;28;20039;-60
2023/07/02 02:02:43;;;;;;;6.10;3.30;;;;;;;15.10;100.00;98320.13;5048616;28;20028;-60
2023/07/02 02:05:09;;;;;;;8.70;3.83;;;;;;;15.09;100.00;98319.28;5029727;28;20037;-60
2023/07/02 02:07:36;;;;;;;6.25;3.30;;;;;;;15.04;100.00;98321.09;5047677;28;20020;-60
2023/07/02 02:10:03;;;;;;;8.18;3.55;;;;;;;15.05;100.00;98320.00;5048688;28;20424;-60
2023/07/02 02:12:30;;;;;;;9.52;3.67;;;;;;;15.04;100.00;98321.09;5032752;28;20025;-60
2023/07/02 02:14:56;;;;;;;7.38;3.50;;;;;;;15.04;100.00;98327.38;5035037;28;20394;-60
2023/07/02 02:17:21;;;;;;;4.07;3.05;;;;;;;15.05;100.00;98318.13;5034603;28;20029;-60
2023/07/02 02:19:47;;;;;;;8.48;3.90;;;;;;;15.05;100.00;98323.56;5033892;28;20032;-60
2023/07/02 02:22:13;;;;;;;6.45;2.95;;;;;;;15.06;100.00;98314.34;5041933;28;20091;-60
2023/07/02 02:24:38;;;;;;;7.53;3.58;;;;;;;15.06;100.00;98325.22;5033470;28;20049;-60
2023/07/02 02:27:04;;;;;;;7.07;3.15;;;;;;;15.10;100.00;98326.38;5024229;28;20073;-60
2023/07/02 02:29:29;;;;;;;4.32;3.20;;;;;;;15.12;100.00;98321.53;5035288;28;20059;-60
2023/07/02 02:31:54;;;;;;;8.55;3.70;;;;;;;15.17;100.00;98325.41;5026673;28;20123;-60
2023/07/02 02:34:20;;;;;;;7.93;3.20;;;;;;;15.20;100.00;98331.19;5033208;28;20415;-60
2023/07/02 02:36:46;;;;;;;8.50;3.25;;;;;;;15.23;100.00;98336.16;5033986;28;20028;-60
2023/07/02 02:39:12;;;;;;;4.43;3.38;;;;;;;15.26;100.00;98334.84;5030191;28;20036;-60
2023/07/02 02:41:37;;;;;;;7.15;3.97;;;;;;;15.22;100.00;98312.72;4998079;22;1104934;-78
2023/07/02 02:44:02;;;;;;;11.65;4.45;;;;;;;15.29;100.00;98324.25;5052423;28;20078;-77
2023/07/02 02:46:28;;;;;;;10.10;3.20;;;;;;;15.32;100.00;98312.88;5059542;28;20497;-77
2023/07/02 02:48:53;;;;;;;8.35;4.00;;;;;;;15.33;100.00;98313.72;5043519;28;20040;-77
2023/07/02 02:51:18;;;;;;;6.68;3.15;;;;;;;15.38;100.00;98302.91;5054814;28;20494;-78
2023/07/02 02:53:44;;;;;;;5.68;2.97;;;;;;;15.39;100.00;98315.44;5059289;28;20164;-78
2023/07/02 02:56:09;;;;;;;8.43;3.08;;;;;;;15.45;100.00;98310.91;5078080;28;20028;-77
2023/07/02 02:58:34;;;;;;;4.72;2.45;;;;;;;15.41;100.00;98298.84;5063242;28;20029;-79
2023/07/02 03:00:59;;;;;;;8.73;3.13;;;;;;;15.48;100.00;98316.72;5062150;28;20032;-76
2023/07/02 03:03:25;;;;;;;4.47;2.88;;;;;;;15.38;100.00;98302.91;5061063;28;20111;-77
2023/07/02 03:05:50;;;;;;;6.25;3.60;;;;;;;15.25;100.00;98303.22;5057587;28;20028;-76
2023/07/02 03:08:16;;;;;;;8.18;3.13;;;;;;;15.08;100.00;98301.28;5073477;28;20032;-77
2023/07/02 03:10:41;;;;;;;12.00;3.42;;;;;;;15.03;100.00;98325.69;5056114;28;20047;-77
2023/07/02 03:13:07;;;;;;;5.68;3.25;;;;;;;14.85;100.00;98304.09;5059064;28;20086;-77
2023/07/02 03:15:32;;;;;;;9.57;2.92;;;;;;;14.96;100.00;98307.84;5046249;28;20026;-80
2023/07/02 03:17:57;;;;;;;8.30;3.60;;;;;;;14.91;100.00;98316.78;5061522;28;20036;-77
2023/07/02 03:20:23;;;;;;;9.77;3.60;;;;;;;14.96;100.00;98327.75;5062792;28;20025;-77
2023/07/02 03:22:49;;;;;;;6.97;3.55;;;;;;;14.91;100.00;98324.94;5054121;28;20029;-78
2023/07/02 03:25:15;;;;;;;11.30;3.58;;;;;;;14.73;100.00;98304.16;5057163;28;20179;-77
2023/07/02 03:27:40;;;;;;;8.27;3.35;;;;;;;14.79;100.00;98321.44;5065944;28;20483;-78
2023/07/02 03:30:06;;;;;;;6.93;3.58;;;;;;;14.68;100.00;98313.06;5064526;28;20029;-77
2023/07/02 03:32:31;;;;;;;9.98;3.72;;;;;;;14.65;100.00;98319.00;5063132;28;20021;-77
2023/07/02 03:34:57;;;;;;;6.57;3.80;;;;;;;14.77;100.00;98329.00;5062422;28;20036;-78
2023/07/02 03:37:22;;;;;;;9.57;3.78;;;;;;;14.85;100.00;98345.78;5063185;28;20017;-77
2023/07/02 03:39:47;;;;;;;8.73;3.97;;;;;;;14.81;100.00;98322.03;5065118;28;20517;-77
2023/07/02 03:42:12;;;;;;;12.27;4.07;;;;;;;14.80;100.00;98329.38;5062420;28;20062;-78
2023/07/02 03:44:38;;;;;;;12.10;3.67;;;;;;;14.83;100.00;98330.78;5049145;28;20021;-77
2023/07/02 03:47:03;;;;;;;11.88;4.28;;;;;;;14.69;100.00;98306.53;5045613;28;20028;-77
2023/07/02 03:49:29;;;;;;;7.90;3.58;;;;;;;14.75;100.00;98322.97;5047787;28;20029;-77
2023/07/02 03:51:54;;;;;;;8.40;4.05;;;;;;;14.74;100.00;98334.94;5040337;28;20025;-77
2023/07/02 03:54:20;;;;;;;8.93;3.70;;;;;;;14.77;100.00;98350.78;5049399;28;20543;-77
2023/07/02 03:56:45;;;;;;;12.18;4.03;;;;;;;14.84;100.00;98357.75;5049560;28;20048;-77
2023/07/02 03:59:10;;;;;;;12.00;4.25;;;;;;;14.83;100.00;98358.84;5036862;28;20116;-77
2023/07/02 04:01:36;;;;;;;9.38;4.43;;;;;;;14.80;100.00;98361.19;5043694;28;20084;-77
2023/07/02 04:04:01;;;;;;;10.05;4.60;;;;;;;14.83;100.00;98360.75;5056590;28;20033;-77
2023/07/02 04:06:26;;;;;;;7.47;4.03;;;;;;;14.87;100.00;98353.72;5045839;28;20498;-77
2023/07/02 04:08:51;;;;;;;12.63;4.00;;;;;;;14.89;100.00;98346.13;5044728;28;20513;-77
2023/07/02 04:11:17;;;;;;;9.93;3.85;;;;;;;14.86;100.00;98331.09;5046329;28;20379;-77
2023/07/02 04:13:42;;;;;;;9.07;4.50;;;;;;;14.90;100.00;98339.59;5050456;28;20029;-77
2023/07/02 04:16:07;;;;;;;12.43;4.72;;;;;;;15.04;100.00;98343.72;5068380;28;20374;-78
2023/07/02 04:18:33;;;;;;;9.90;4.57;;;;;;;15.18;100.00;98354.31;5051550;28;20398;-78
2023/07/02 04:20:58;;;;;;;11.32;4.43;;;;;;;15.18;100.00;98354.31;5053544;28;20032;-78
2023/07/02 04:23:25;;;;;;;12.73;4.55;;;;;;;14.97;100.00;98343.03;5052193;28;20024;-77
2023/07/02 04:25:50;;;;;;;10.20;4.70;;;;;;;15.02;100.00;98348.56;5044268;28;20048;-78
2023/07/02 04:28:16;;;;;;;10.93;4.43;;;;;;;15.06;100.00;98347.03;5046453;28;20479;-78
2023/07/02 04:30:42;;;;;;;11.02;4.22;;;;;;;15.05;100.00;98348.06;5046818;28;20060;-78
2023/07/02 04:33:07;;;;;;;12.38;4.57;;;;;;;15.08;100.00;98350.31;5057067;28;20024;-78
2023/07/02 04:35:32;;;;;;;15.02;4.75;;;;;;;15.19;100.00;98348.59;5062340;28;20021;-77
2023/07/02 04:37:58;;;;;;;15.30;4.60;;;;;;;15.26;100.00;98338.38;5055160;28;20063;-78
2023/07/02 04:40:24;;;;;;;12.45;5.20;;;;;;;15.40;100.00;98366.16;5053301;28;20208;-78
2023/07/02 04:42:57;;;;;;;14.63;5.07;;;;;;;15.48;100.00;98348.56;5054690;28;20038;-77
2023/07/02 04:45:23;;;;;;;17.08;4.85;;;;;;;15.54;100.00;98337.50;5050266;28;20071;-78
2023/07/02 04:47:48;;;;;;;9.48;4.30;;;;;;;15.72;100.00;98354.75;5046137;28;20483;-77
2023/07/02 04:50:13;;;;;;;9.93;4.50;;;;;;;15.75;100.00;98338.72;5076799;28;20259;-77
2023/07/02 04:52:38;;;;;;;10.60;4.68;;;;;;;15.81;100.00;98347.78;5054576;28;20031;-77
2023/07/02 04:55:04;;;;;;;12.55;4.70;;;;;;;15.86;100.00;98361.50;5055168;28;20360;-77
2023/07/02 04:57:30;;;;;;;11.93;4.88;;;;;;;15.83;100.00;98351.09;5046315;28;20025;-77
2023/07/02 04:59:55;;;;;;;9.88;4.47;;;;;;;15.90;100.00;98334.56;5040851;28;20064;-78
2023/07/02 05:02:20;;;;;;;9.23;4.13;;;;;;;15.92;100.00;98349.59;5055566;28;20108;-77
2023/07/02 05:04:46;;;;;;;9.88;4.18;;;;;;;16.17;100.00;98362.00;5041232;28;20033;-77
2023/07/02 05:07:11;;;;;;;12.23;4.13;;;;;;;16.33;100.00;98355.66;5034908;28;20025;-78
2023/07/02 05:09:36;;;;;;;8.32;4.10;;;;;;;16.24;100.00;98335.31;5051963;28;20035;-78
2023/07/02 05:12:02;;;;;;;11.00;4.28;;;;;;;16.41;100.00;98359.88;5048464;28;20463;-77
2023/07/02 05:14:27;;;;;;;10.60;4.53;;;;;;;16.35;100.00;98355.44;5062961;28;20025;-77
2023/07/02 05:16:52;;;;;;;11.38;3.92;;;;;;;16.70;100.00;98371.44;5044016;28;20106;-77
2023/07/02 05:19:18;;;;;;;13.50;4.32;;;;;;;16.88;100.00;98355.88;5051263;28;20033;-77
2023/07/02 05:21:43;;;;;;;7.78;3.70;;;;;;;17.01;100.00;98347.28;5051820;28;20050;-77
2023/07/02 05:24:08;;;;;;;7.00;3.35;;;;;;;17.22;100.00;98362.81;5047074;28;20021;-77
2023/07/02 05:26:34;;;;;;;8.13;3.38;;;;;;;17.25;100.00;98362.28;5053367;28;20099;-77
2023/07/02 05:29:00;;;;;;;6.30;3.05;;;;;;;17.31;100.00;98366.72;5040050;28;20037;-78
2023/07/02 05:31:25;;;;;;;9.65;3.03;;;;;;;17.07;100.00;98370.84;5058770;28;20021;-77
2023/07/02 05:33:50;;;;;;;6.88;2.40;;;;;;;17.38;100.00;98362.97;5048876;28;20040;-77
2023/07/02 05:36:16;;;;;;;7.80;2.70;;;;;;;17.14;100.00;98363.25;5055818;28;20057;-77
2023/07/02 05:38:41;;;;;;;11.00;2.80;;;;;;;17.10;100.00;98362.13;5041597;28;20026;-77
2023/07/02 05:41:06;;;;;;;6.18;2.42;;;;;;;17.02;100.00;98351.63;5059545;28;20024;-78
2023/07/02 05:43:31;;;;;;;7.20;2.65;;;;;;;16.89;100.00;98360.22;5044354;28;20031;-77
2023/07/02 05:46:00;;;;;;;12.57;3.70;;;;;;;16.82;100.00;98341.28;5055175;28;20473;-78
2023/07/02 05:48:26;;;;;;;7.80;2.40;;;;;;;17.02;100.00;98355.19;5047134;28;20040;-77
2023/07/02 05:50:51;;;;;;;11.95;3.20;;;;;;;16.82;100.00;98368.59;5046543;28;20036;-77
2023/07/02 05:53:16;;;;;;;7.07;2.85;;;;;;;16.78;100.00;98372.94;5064009;22;20406;-74
2023/07/02 05:55:42;;;;;;;5.55;2.92;;;;;;;16.88;100.00;98384.00;5048837;28;20112;-74
2023/07/02 05:58:08;;;;;;;8.25;3.33;;;;;;;17.11;100.00;98387.53;5051998;28;20492;-75
2023/07/02 06:00:33;;;;;;;7.45;3.30;;;;;;;17.44;100.00;98392.00;5033706;28;20044;-74
2023/07/02 06:02:59;;;;;;;10.85;3.72;;;;;;;17.92;100.00;98385.66;5040331;28;20032;-74
2023/07/02 06:05:25;;;;;;;7.93;3.67;;;;;;;17.80;100.00;98387.72;5023762;28;20029;-75
2023/07/02 06:07:50;;;;;;;11.23;3.60;;;;;;;18.63;100.00;98381.72;5023994;28;20143;-75
2023/07/02 06:10:16;;;;;;;11.20;3.80;;;;;;;18.33;100.00;98372.22;5029690;28;20029;-74
2023/07/02 06:12:43;;;;;;;13.80;4.10;;;;;;;18.15;100.00;98373.47;5026378;28;20151;-80
2023/07/02 06:15:08;;;;;;;8.98;4.05;;;;;;;18.71;100.00;98383.16;5030822;28;20033;-79
2023/07/02 06:17:34;;;;;;;9.65;3.83;;;;;;;18.68;100.00;98389.13;5039743;28;20026;-79
2023/07/02 06:19:59;;;;;;;10.95;4.18;;;;;;;18.84;100.00;98382.69;5045714;28;20041;-78
2023/07/02 06:22:24;;;;;;;12.73;4.28;;;;;;;18.87;100.00;98375.84;5025743;28;20065;-79
2023/07/02 06:24:50;;;;;;;11.48;4.38;;;;;;;18.33;100.00;98383.19;5022204;28;20022;-78
2023/07/02 06:27:15;;;;;;;12.32;4.93;;;;;;;18.96;100.00;98386.00;5021738;28;20036;-79
2023/07/02 06:29:40;;;;;;;12.45;4.50;;;;;;;19.21;100.00;98371.56;5039209;28;20033;-72
2023/07/02 06:32:06;;;;;;;10.43;4.55;;;;;;;18.78;100.00;98381.00;5034425;28;20029;-74
2023/07/02 06:34:31;;;;;;;9.25;4.40;;;;;;;18.67;100.00;98387.50;5018980;28;20458;-74
2023/07/02 06:36:56;;;;;;;11.57;4.88;;;;;;;18.85;100.00;98378.84;5034729;28;20026;-72
2023/07/02 06:39:22;;;;;;;14.27;4.13;;;;;;;19.87;100.00;98392.00;5044616;28;20029;-81
2023/07/02 06:41:47;;;;;;;11.13;4.35;;;;;;;20.46;100.00;98390.56;5037346;28;20095;-79
2023/07/02 06:44:12;;;;;;;10.77;4.80;;;;;;;20.85;100.00;98390.75;5034528;28;20032;-79
2023/07/02 06:46:38;;;;;;;9.60;4.53;;;;;;;20.48;100.00;98380.94;5034296;28;20098;-78
2023/07/02 06:49:03;;;;;;;12.27;4.88;;;;;;;20.42;100.00;98389.50;5025518;28;20125;-75
2023/07/02 06:51:29;;;;;;;12.40;4.45;;;;;;;21.13;100.00;98377.44;5018332;28;20030;-77
2023/07/02 06:53:54;;;;;;;13.82;4.80;;;;;;;21.84;100.00;98387.22;5019359;28;20586;-76
2023/07/02 06:56:19;;;;;;;11.13;4.53;;;;;;;23.46;100.00;98371.16;5029189;28;20029;-75
2023/07/02 06:58:45;;;;;;;12.85;4.55;;;;;;;24.74;100.00;98383.69;5031758;28;20065;-77
2023/07/02 07:01:10;;;;;;;11.95;5.00;;;;;;;25.04;100.00;98371.16;5025523;28;20033;-76
2023/07/02 07:03:36;;;;;;;10.10;4.65;;;;;;;26.40;83.42;98369.38;5026603;28;20029;-78
2023/07/02 07:06:01;;;;;;;12.48;4.88;;;;;;;27.72;69.33;98391.72;5030011;28;20021;-78
2023/07/02 07:08:27;;;;;;;10.80;4.63;;;;;;;25.64;76.96;98385.94;5035023;28;20406;-79
2023/07/02 07:10:53;;;;;;;11.15;4.97;;;;;;;26.39;77.64;98393.53;5031609;28;20040;-78
2023/07/02 07:13:19;;;;;;;11.70;5.40;;;;;;;27.57;69.59;98389.41;5035126;28;20025;-78
2023/07/02 07:15:44;;;;;;;12.07;5.07;;;;;;;27.99;60.22;98393.38;5031236;28;20038;-78
2023/07/02 07:18:10;;;;;;;11.57;4.82;;;;;;;28.96;60.42;98389.22;5028208;28;20022;-73
2023/07/02 07:20:35;;;;;;;10.70;5.57;;;;;;;29.38;54.30;98376.19;5015100;28;20475;-78
2023/07/02 07:23:02;;;;;;;11.60;5.40;;;;;;;28.44;55.61;98378.28;5031506;28;20036;-77
2023/07/02 07:25:28;;;;;;;10.18;4.82;;;;;;;28.45;54.49;98377.91;5020064;28;20026;-79
2023/07/02 07:27:53;;;;;;;12.35;5.55;;;;;;;30.01;52.14;98386.56;5034958;28;20123;-77
2023/07/02 07:30:22;;;;;;;14.45;6.05;;;;;;;29.79;48.54;98383.00;5047022;28;20105;-78
2023/07/02 07:32:48;;;;;;;;;;;;;;;30.02;48.71;98388.19;5024705;28;20064;-77
2023/07/02 07:35:13;;;;;;;9.93;5.40;;;;;;;28.28;50.71;98384.31;5027910;28;19977;-78
2023/07/02 07:37:40;;;;;;;14.48;5.60;;;;;;;30.38;48.36;98379.16;5029648;28;20029;-78
2023/07/02 07:40:06;;;;;;;10.93;5.75;;;;;;;30.68;45.77;98379.81;5046112;28;20108;-79
2023/07/02 07:45:06;;;;;;;12.75;6.38;;;;;;;32.31;43.84;98381.69;5027071;28;20453;-64
2023/07/02 07:47:31;;;;;;;10.55;5.15;;;;;;;33.39;42.39;98382.44;5031997;28;20026;-65
2023/07/02 07:49:58;;;;;;;10.43;5.10;;;;;;;33.24;42.91;98398.13;5022199;28;20388;-64
2023/07/02 07:52:23;;;;;;;10.38;5.88;;;;;;;32.34;43.16;98382.94;5025453;28;20022;-63
2023/07/02 07:54:49;;;;;;;12.23;5.32;;;;;;;33.82;41.65;98384.25;5030740;28;20029;-64
2023/07/02 07:57:14;;;;;;;8.57;5.03;;;;;;;31.90;44.16;98385.69;5024243;28;20064;-64
2023/07/02 07:59:40;;;;;;;11.05;5.50;;;;;;;31.31;43.88;98385.09;5030296;28;20433;-64
2023/07/02 08:02:05;;;;;;;10.35;5.30;;;;;;;33.60;41.33;98384.94;5040078;28;20030;-64
2023/07/02 08:04:31;;;;;;;13.10;5.95;;;;;;;33.49;39.74;98390.28;5023906;28;20032;-64
2023/07/02 08:06:56;;;;;;;10.25;5.75;;;;;;;33.47;40.44;98394.63;5030735;28;20025;-65
2023/07/02 08:09:23;;;;;;;9.27;5.22;;;;;;;33.02;42.43;98388.38;5035775;28;20030;-65
2023/07/02 08:11:50;;;;;;;11.98;5.28;;;;;;;34.17;39.39;98383.38;5025929;28;20464;-64
2023/07/02 08:14:17;;;;;;;10.77;5.65;;;;;;;34.98;39.07;98384.44;5028520;28;20040;-65
2023/07/02 08:16:44;;;;;;;12.23;4.82;;;;;;;33.06;40.43;98400.47;5024514;28;20084;-64
2023/07/02 08:19:09;;;;;;;11.75;6.00;;;;;;;33.88;40.02;98386.72;5026414;28;20021;-63
2023/07/02 08:21:35;;;;;;;11.27;6.07;;;;;;;32.65;41.89;98387.81;5022817;28;20036;-64
2023/07/02 08:24:00;;;;;;;14.82;6.63;;;;;;;30.06;44.01;98397.53;5024561;28;20074;-63
2023/07/02 08:26:25;;;;;;;15.60;8.40;;;;;;;27.98;45.67;98397.28;5031000;28;20065;-66
2023/07/02 08:28:51;;;;;;;15.38;8.02;;;;;;;27.60;46.74;98399.88;5016971;28;20361;-63
2023/07/02 08:31:16;;;;;;;19.00;8.05;;;;;;;28.34;46.70;98399.69;5025299;28;20083;-64
2023/07/02 08:33:41;;;;;;;19.05;7.93;;;;;;;30.12;43.11;98398.94;5030020;28;20048;-66
2023/07/02 08:36:07;;;;;;;12.70;7.25;;;;;;;31.54;40.73;98395.78;5027986;28;20057;-64
2023/07/02 08:38:33;;;;;;;12.45;7.28;;;;;;;32.03;41.19;98399.28;5016428;28;20045;-64
2023/07/02 08:40:58;;;;;;;17.33;8.60;;;;;;;28.09;43.65;98409.72;5024806;28;20033;-64
2023/07/02 08:43:27;;;;;;;21.45;9.57;;;;;;;24.26;51.41;98414.38;5027462;28;20033;-63
2023/07/02 08:45:53;;;;;;;15.57;8.75;;;;;;;24.87;52.27;98409.72;5029203;28;20025;-64
2023/07/02 08:48:23;;;;;;;15.88;8.82;;;;;;;28.08;48.48;98412.81;5030048;28;20036;-64
2023/07/02 08:50:49;;;;;;;22.85;9.30;;;;;;;30.47;42.24;98398.59;5027561;28;20092;-64
2023/07/02 08:53:15;;;;;;;16.92;9.05;;;;;;;29.92;42.73;98395.84;5022856;28;20419;-65
2023/07/02 08:55:41;;;;;;;20.00;9.73;;;;;;;32.03;40.10;98388.09;5022248;28;20029;-65
2023/07/02 08:58:06;;;;;;;17.67;9.13;;;;;;;33.66;38.36;98397.50;5028426;28;20084;-65
2023/07/02 09:00:36;;;;;;;16.80;8.70;;;;;;;32.82;38.87;98384.66;5014896;28;20836;-65
2023/07/02 09:03:15;;;;;;;19.85;10.65;;;;;;;33.11;39.03;98393.78;5020437;28;20041;-64
2023/07/02 09:05:52;;;;;;;17.98;9.77;;;;;;;34.10;36.42;98382.41;5026186;28;20503;-66
2023/07/02 09:08:25;;;;;;;18.58;10.07;;;;;;;31.85;38.91;98375.53;5026338;28;20051;-64
2023/07/02 09:10:50;;;;;;;17.17;10.38;;;;;;;29.08;42.16;98399.66;5042719;28;20485;-64
2023/07/02 09:13:16;;;;;;;17.42;10.10;;;;;;;29.64;43.43;98403.94;5033624;28;20017;-65
2023/07/02 09:15:42;;;;;;;22.25;11.18;;;;;;;30.25;41.47;98400.63;5022568;28;20373;-65
2023/07/02 09:18:34;;;;;;;20.30;10.60;;;;;;;33.28;38.83;98399.03;5029746;28;20116;-64
2023/07/02 09:20:59;;;;;;;17.25;9.65;;;;;;;35.00;36.30;98384.88;5016329;28;20046;-65
2023/07/02 09:23:37;;;;;;;19.48;10.45;;;;;;;35.34;35.55;98397.94;5026287;28;20048;-65
2023/07/02 09:26:03;;;;;;;18.35;11.43;;;;;;;30.46;39.59;98406.16;5022430;28;20104;-65
2023/07/02 09:28:28;;;;;;;24.48;12.63;;;;;;;29.06;42.39;98411.16;5025976;28;20055;-64
2023/07/02 09:30:55;;;;;;;21.33;11.25;;;;;;;29.40;42.19;98409.31;5027638;28;20018;-64
2023/07/02 09:33:23;;;;;;;22.17;11.73;;;;;;;29.70;42.83;98405.34;5044912;28;20021;-64
2023/07/02 09:35:51;;;;;;;23.13;12.05;;;;;;;28.71;43.68;98402.06;5023957;28;20049;-64
2023/07/02 09:38:18;;;;;;;19.35;11.38;;;;;;;27.10;44.76;98395.50;5035892;28;20472;-63
2023/07/02 09:40:49;;;;;;;24.23;11.32;;;;;;;30.35;41.28;98402.19;5024104;28;20026;-63
2023/07/02 09:43:16;;;;;;;23.23;10.98;;;;;;;32.18;38.53;98397.72;5028106;28;20439;-64
2023/07/02 09:45:51;;;;;;;23.90;11.68;;;;;;;31.89;38.37;98398.84;5023825;28;20108;-64
2023/07/02 09:48:17;;;;;;;28.08;11.77;;;;;;;33.07;38.23;98392.91;5029816;28;20038;-67
2023/07/02 09:50:44;;;;;;;25.92;12.27;;;;;;;32.09;38.37;98394.25;5025213;28;20032;-64
2023/07/02 09:53:10;;;;;;;24.40;12.15;;;;;;;28.53;43.47;98418.84;5033136;28;20460;-66
2023/07/02 09:55:38;;;;;;;24.58;12.35;;;;;;;27.46;45.61;98405.59;5020355;28;20528;-63
2023/07/02 09:58:03;;;;;;;25.50;11.73;;;;;;;28.40;43.75;98406.72;5040501;28;20033;-63
2023/07/02 10:00:29;;;;;;;22.90;12.00;;;;;;;30.66;40.40;98396.09;5019843;28;20383;-64
2023/07/02 10:02:54;;;;;;;22.27;11.52;;;;;;;33.06;38.79;98392.06;5028424;28;20049;-65
2023/07/02 10:05:39;;;;;;;24.30;11.65;;;;;;;32.12;38.21;98403.91;5032369;28;20017;-66
2023/07/02 10:08:17;;;;;;;19.00;11.10;;;;;;;34.53;36.38;98386.84;5029400;28;20358;-65
2023/07/02 10:10:43;;;;;;;22.75;11.38;;;;;;;34.95;34.85;98376.75;5018801;28;20373;-66
2023/07/02 10:13:08;;;;;;;22.52;12.35;;;;;;;33.08;36.16;98392.53;5034137;28;20033;-67
2023/07/02 10:15:40;;;;;;;19.77;11.13;;;;;;;30.43;38.72;98383.72;5029300;28;20071;-65
2023/07/02 10:18:06;;;;;;;22.15;10.55;;;;;;;29.91;41.08;98399.75;5025645;28;20108;-65
2023/07/02 10:20:34;;;;;;;20.90;11.32;;;;;;;32.28;38.67;98400.00;5028360;28;20037;-65
2023/07/02 10:23:01;;;;;;;18.88;10.40;;;;;;;31.54;37.82;98388.22;5030508;28;20116;-65
2023/07/02 10:25:38;;;;;;;20.75;11.25;;;;;;;28.52;41.76;98382.97;5025391;28;20038;-68
2023/07/02 10:28:22;;;;;;;22.08;11.63;;;;;;;26.99;44.12;98385.84;5016690;28;20071;-69
2023/07/02 10:30:47;;;;;;;18.83;11.90;;;;;;;29.57;42.20;98391.66;5026829;28;20384;-68
2023/07/02 10:33:17;;;;;;;20.67;10.57;;;;;;;32.41;38.81;98386.75;5028707;28;20026;-68
2023/07/02 10:35:49;;;;;;;19.15;10.45;;;;;;;32.96;37.20;98378.59;5030418;28;20030;-68
2023/07/02 10:38:19;;;;;;;18.77;10.40;;;;;;;34.64;35.90;98379.47;5027416;28;20048;-68
2023/07/02 10:40:45;;;;;;;20.77;10.35;;;;;;;35.23;34.07;98379.25;5029165;28;20116;-68
2023/07/02 10:43:10;;;;;;;19.55;11.15;;;;;;;35.86;34.07;98372.13;5019615;28;20160;-68
2023/07/02 10:45:36;;;;;;;20.95;10.63;;;;;;;34.57;35.23;98368.09;5028761;28;20080;-68
2023/07/02 10:48:03;;;;;;;21.65;11.07;;;;;;;35.43;34.43;98389.22;5041244;28;20187;-68
2023/07/02 10:50:31;;;;;;;17.02;10.32;;;;;;;34.98;34.78;98388.09;5029449;28;20048;-68
2023/07/02 10:52:57;;;;;;;21.63;10.52;;;;;;;32.09;37.42;98388.66;5030473;28;20143;-68
2023/07/02 10:55:24;;;;;;;16.20;10.40;;;;;;;30.82;38.84;98393.47;5022930;28;20418;-68
2023/07/02 10:58:03;;;;;;;20.75;10.90;;;;;;;32.35;37.53;98382.56;5026872;28;20022;-67
2023/07/02 11:00:29;;;;;;;;;;;;;;;32.55;36.43;98380.75;5015906;28;20064;-68
2023/07/02 11:02:55;;;;;;;17.33;10.00;;;;;;;31.50;37.86;98373.31;5022095;28;19986;-68
2023/07/02 11:05:20;;;;;;;15.82;9.60;;;;;;;32.25;37.67;98383.94;5017494;28;20037;-67
2023/07/02 11:07:46;;;;;;;17.05;9.70;;;;;;;32.09;36.70;98374.66;5029833;28;20013;-68
2023/07/02 11:10:18;;;;;;;21.67;9.27;;;;;;;30.06;39.76;98386.34;5022721;28;20116;-68
2023/07/02 11:12:45;;;;;;;18.55;9.95;;;;;;;30.28;39.55;98377.63;5023983;28;20424;-67
2023/07/02 11:15:12;;;;;;;15.70;9.77;;;;;;;30.96;39.13;98381.94;5024641;28;20057;-66
2023/07/02 11:17:39;;;;;;;18.25;10.20;;;;;;;31.86;37.63;98368.78;5031851;28;20029;-68
2023/07/02 11:20:05;;;;;;;17.70;10.63;;;;;;;32.24;37.25;98384.28;5030655;28;20362;-67